West Wyomissing, Pennsylvania
Current Conditions -  °F | °C
As of 6:01 PM on Wednesday 26 Nov 2014 (Local Time) from KRDG Reporting Station
Light Snow Light Snow  
Wind Chill: 28°   Ceiling: 1800
Heat Index: 34°   Visibility: 2mi
Dew Point: 32°   Wind: 7mph
Humidity: 92%   Direction: 330°NNW
Pressure: 29.92"   Gusts: NA
Location:  40.3275°N, 75.9966°W
Report Text: KRDG 262301Z 33006KT 2SM -SN BR FEW008 OVC018 01/00 A2992 RMK AO2 SFC VIS 4 P0001 T00110000
Loading
Personal Weather Stations






























Interactive Weather Map New forecast layout! Learn more

10-Day Weather Forecast

Advertisements
Track Severe Weather on mobile